createdAt,value
2023-03-23T00:02:02.289Z,66.37
2023-03-23T00:04:30.335Z,66.28
2023-03-23T00:06:57.115Z,66.29
2023-03-23T00:09:25.864Z,64.07
2023-03-23T00:11:52.985Z,63.70
2023-03-23T00:14:23.565Z,62.63
2023-03-23T00:16:50.945Z,62.88
2023-03-23T00:19:20.353Z,61.67
2023-03-23T00:21:47.313Z,61.07
2023-03-23T00:24:19.110Z,61.16
2023-03-23T00:26:48.491Z,60.06
2023-03-23T00:29:19.874Z,59.09
2023-03-23T00:31:51.134Z,59.18
2023-03-23T00:34:27.019Z,58.59
2023-03-23T00:36:57.780Z,58.66
2023-03-23T00:39:26.690Z,58.73
2023-03-23T00:41:54.374Z,59.10
2023-03-23T00:44:24.697Z,59.33
2023-03-23T00:46:51.340Z,59.43
2023-03-23T00:49:20.908Z,58.56
2023-03-23T00:51:47.785Z,60.24
2023-03-23T00:54:14.552Z,59.69
2023-03-23T00:56:41.930Z,59.71
2023-03-23T00:59:09.121Z,60.02
2023-03-23T01:01:36.614Z,59.84
2023-03-23T01:04:06.953Z,59.52
2023-03-23T01:06:40.254Z,59.85
2023-03-23T01:09:17.736Z,60.32
2023-03-23T01:11:45.780Z,60.07
2023-03-23T01:14:13.868Z,59.71
2023-03-23T01:16:41.873Z,59.48
2023-03-23T01:19:09.070Z,58.45
2023-03-23T01:21:37.075Z,57.97
2023-03-23T01:24:04.045Z,57.29
2023-03-23T01:26:31.162Z,56.55
2023-03-23T01:28:58.589Z,56.82
2023-03-23T01:31:27.399Z,56.71
2023-03-23T01:33:55.651Z,56.79
2023-03-23T01:36:27.669Z,56.81
2023-03-23T01:38:55.504Z,55.33
2023-03-23T01:41:22.904Z,55.94
2023-03-23T01:44:31.205Z,55.47
2023-03-23T01:47:08.372Z,55.96
2023-03-23T01:49:39.458Z,56.35
2023-03-23T01:52:10.193Z,55.56
2023-03-23T01:54:39.380Z,56.15
2023-03-23T01:57:08.989Z,56.10
2023-03-23T01:59:36.635Z,55.70
2023-03-23T02:02:17.237Z,56.58
2023-03-23T02:04:45.586Z,55.26
2023-03-23T02:07:13.646Z,55.25
2023-03-23T02:09:40.615Z,56.03
2023-03-23T02:12:07.571Z,56.18
2023-03-23T02:14:36.226Z,56.79
2023-03-23T02:17:10.881Z,57.23
2023-03-23T02:19:43.373Z,57.76
2023-03-23T02:22:36.552Z,58.34
2023-03-23T02:25:30.755Z,58.75
2023-03-23T02:28:03.950Z,58.29
2023-03-23T02:30:38.699Z,59.03
2023-03-23T02:33:40.115Z,59.04
2023-03-23T02:36:39.283Z,58.37
2023-03-23T02:39:25.790Z,57.06
2023-03-23T02:41:59.829Z,56.84
2023-03-23T02:44:31.074Z,56.52
2023-03-23T02:46:59.134Z,56.09
2023-03-23T02:49:26.704Z,56.31
2023-03-23T02:51:54.945Z,56.22
2023-03-23T02:54:23.877Z,55.94
2023-03-23T02:56:52.116Z,56.19
2023-03-23T02:59:23.796Z,57.25
2023-03-23T03:01:54.529Z,57.80
2023-03-23T03:04:23.992Z,57.64
2023-03-23T03:07:09.111Z,57.07
2023-03-23T03:09:46.690Z,56.92
2023-03-23T03:12:29.207Z,57.07
2023-03-23T03:15:10.084Z,57.52
2023-03-23T03:17:42.443Z,56.55
2023-03-23T03:20:11.593Z,56.91
2023-03-23T03:22:43.277Z,56.70
2023-03-23T03:25:18.721Z,57.37
2023-03-23T03:27:50.453Z,57.41
2023-03-23T03:30:25.013Z,55.74
2023-03-23T03:32:54.554Z,55.19
2023-03-23T03:35:23.989Z,54.64
2023-03-23T03:37:52.084Z,54.81
2023-03-23T03:40:21.104Z,54.69
2023-03-23T03:42:48.195Z,54.57
2023-03-23T03:45:20.258Z,54.50
2023-03-23T03:47:47.222Z,54.56
2023-03-23T03:50:17.713Z,54.61
2023-03-23T03:52:45.033Z,55.05
2023-03-23T03:55:12.275Z,54.14
2023-03-23T03:57:42.745Z,54.66
2023-03-23T04:00:16.582Z,55.03
2023-03-23T04:02:51.708Z,55.13
2023-03-23T04:05:25.500Z,54.79
2023-03-23T04:07:52.727Z,55.38
2023-03-23T04:10:36.157Z,55.38
2023-03-23T04:13:05.653Z,55.74
2023-03-23T04:16:07.124Z,55.67
2023-03-23T04:18:35.189Z,56.06
2023-03-23T04:21:04.392Z,56.44
2023-03-23T04:23:34.591Z,57.82
2023-03-23T04:26:04.382Z,56.93
2023-03-23T04:28:39.856Z,57.93
2023-03-23T04:31:38.936Z,57.60
2023-03-23T04:34:26.769Z,58.18
2023-03-23T04:36:57.013Z,58.97
2023-03-23T04:39:30.081Z,58.76
2023-03-23T04:42:02.295Z,58.89
2023-03-23T04:44:54.548Z,58.78
2023-03-23T04:47:30.527Z,58.12
2023-03-23T04:50:00.122Z,58.24
2023-03-23T04:52:38.810Z,57.19
2023-03-23T04:55:09.080Z,57.25
2023-03-23T04:57:37.120Z,57.80
2023-03-23T05:00:26.863Z,58.12
2023-03-23T05:02:57.521Z,59.11
2023-03-23T05:05:28.811Z,59.68
2023-03-23T05:07:58.286Z,59.82
2023-03-23T05:10:28.419Z,60.42
2023-03-23T05:13:01.330Z,60.45
2023-03-23T05:15:28.135Z,59.76
2023-03-23T05:17:57.020Z,60.04
2023-03-23T05:20:26.116Z,60.43
2023-03-23T05:23:03.630Z,60.53
2023-03-23T05:25:37.954Z,60.24
2023-03-23T05:28:10.113Z,60.17
2023-03-23T05:30:54.860Z,59.98
2023-03-23T05:33:22.016Z,60.11
2023-03-23T05:35:52.585Z,59.52
2023-03-23T05:38:25.645Z,59.91
2023-03-23T05:40:54.322Z,60.01
2023-03-23T05:43:27.505Z,59.93
2023-03-23T05:46:08.024Z,60.68
2023-03-23T05:48:36.090Z,60.58
2023-03-23T05:51:03.723Z,60.84
2023-03-23T05:53:32.963Z,61.20
2023-03-23T05:56:01.659Z,61.36
2023-03-23T05:58:46.594Z,60.36
2023-03-23T06:01:15.836Z,59.55
2023-03-23T06:03:45.675Z,59.97
2023-03-23T06:06:23.127Z,57.91
2023-03-23T06:08:59.749Z,57.55
2023-03-23T06:11:39.749Z,57.09
2023-03-23T06:14:27.345Z,58.32
2023-03-23T06:16:54.126Z,58.28
2023-03-23T06:19:21.479Z,57.38
2023-03-23T06:21:58.827Z,58.61
2023-03-23T06:24:52.096Z,59.19
2023-03-23T06:27:25.171Z,57.93
2023-03-23T06:29:52.293Z,58.32
2023-03-23T06:32:20.570Z,57.72
2023-03-23T06:34:48.827Z,58.95
2023-03-23T06:37:34.427Z,60.01
2023-03-23T06:40:07.802Z,60.23
2023-03-23T06:42:40.014Z,60.78
2023-03-23T06:45:34.447Z,59.68
2023-03-23T06:48:33.597Z,61.25
2023-03-23T06:51:01.168Z,63.92
2023-03-23T06:53:29.448Z,64.75
2023-03-23T06:55:58.256Z,65.04
2023-03-23T06:58:25.689Z,67.14
2023-03-23T07:00:57.948Z,65.60
2023-03-23T07:03:29.792Z,63.32
2023-03-23T07:05:56.610Z,62.39
2023-03-23T07:08:27.527Z,62.21
2023-03-23T07:10:56.247Z,62.73
2023-03-23T07:13:28.540Z,61.55
2023-03-23T07:15:59.391Z,60.79
2023-03-23T07:18:26.504Z,61.65
2023-03-23T07:20:54.629Z,61.46
2023-03-23T07:23:25.869Z,61.36
2023-03-23T07:25:59.849Z,60.86
2023-03-23T07:28:33.173Z,60.43
2023-03-23T07:31:09.090Z,60.29
2023-03-23T07:33:37.066Z,60.40
2023-03-23T07:36:04.836Z,61.58
2023-03-23T07:38:32.130Z,60.31
2023-03-23T07:40:59.801Z,59.39
2023-03-23T07:43:27.372Z,59.80
2023-03-23T07:46:00.212Z,57.97
2023-03-23T07:48:39.035Z,61.11
2023-03-23T07:51:08.338Z,61.06
2023-03-23T07:53:35.539Z,58.60
2023-03-23T07:56:16.024Z,55.10
2023-03-23T07:58:48.670Z,54.77
2023-03-23T08:01:15.568Z,54.40
2023-03-23T08:03:48.358Z,53.11
2023-03-23T08:06:34.379Z,52.73
2023-03-23T08:09:14.561Z,51.45
2023-03-23T08:11:59.142Z,52.28
2023-03-23T08:14:59.058Z,52.30
2023-03-23T08:17:46.081Z,52.61
2023-03-23T08:20:32.526Z,52.29
2023-03-23T08:23:25.384Z,52.43
2023-03-23T08:26:13.251Z,52.71
2023-03-23T08:29:00.124Z,51.66
2023-03-23T08:31:36.516Z,51.05
2023-03-23T08:34:08.859Z,52.02
2023-03-23T08:37:01.876Z,52.42
2023-03-23T08:39:54.852Z,52.71
2023-03-23T08:42:28.345Z,52.13
2023-03-23T08:45:23.800Z,52.28
2023-03-23T08:48:12.050Z,52.88
2023-03-23T08:50:51.058Z,53.39
2023-03-23T08:53:32.373Z,53.56
2023-03-23T08:56:18.136Z,53.86
2023-03-23T08:58:48.537Z,53.62
2023-03-23T09:01:47.364Z,53.96
2023-03-23T09:04:22.086Z,55.18
2023-03-23T09:07:08.544Z,54.53
2023-03-23T09:09:35.401Z,54.75
2023-03-23T09:12:02.121Z,55.18
2023-03-23T09:14:28.822Z,55.34
2023-03-23T09:16:55.688Z,55.13
2023-03-23T09:19:25.013Z,55.37
2023-03-23T09:21:52.280Z,54.55
2023-03-23T09:24:20.218Z,54.29
2023-03-23T09:26:46.925Z,54.02
2023-03-23T09:29:14.603Z,53.71
2023-03-23T09:31:42.824Z,54.74
2023-03-23T09:34:10.979Z,56.12
2023-03-23T09:36:40.072Z,54.55
2023-03-23T09:39:12.392Z,53.49
2023-03-23T09:42:02.800Z,54.21
2023-03-23T09:45:12.587Z,53.60
2023-03-23T09:47:49.450Z,53.58
2023-03-23T09:50:19.485Z,53.24
2023-03-23T09:52:49.512Z,53.27
2023-03-23T09:55:17.736Z,53.54
2023-03-23T09:58:16.863Z,52.99
2023-03-23T10:00:48.378Z,53.47
2023-03-23T10:03:18.676Z,54.01
2023-03-23T10:05:49.313Z,52.79
2023-03-23T10:08:20.488Z,52.82
2023-03-23T10:11:05.395Z,53.21
2023-03-23T10:13:50.320Z,53.51
2023-03-23T10:16:21.941Z,52.96
2023-03-23T10:19:19.271Z,52.94
2023-03-23T10:21:50.625Z,52.68
2023-03-23T10:24:18.425Z,52.36
2023-03-23T10:27:12.533Z,51.99
2023-03-23T10:29:46.093Z,53.58
2023-03-23T10:32:15.760Z,53.09
2023-03-23T10:34:47.594Z,53.29
2023-03-23T10:37:31.439Z,51.41
2023-03-23T10:40:00.504Z,52.14
2023-03-23T10:42:29.934Z,51.63
2023-03-23T10:44:58.109Z,51.77
2023-03-23T10:47:25.533Z,51.13
2023-03-23T10:50:00.977Z,52.04
2023-03-23T10:52:36.542Z,52.83
2023-03-23T10:55:15.938Z,53.11
2023-03-23T10:57:48.125Z,54.40
2023-03-23T11:00:27.952Z,54.57
2023-03-23T11:03:05.799Z,54.10
2023-03-23T11:05:43.893Z,53.27
2023-03-23T11:08:16.698Z,53.06
2023-03-23T11:10:54.895Z,53.15
2023-03-23T11:13:24.050Z,53.87
2023-03-23T11:15:51.580Z,55.11
2023-03-23T11:18:23.052Z,55.65
2023-03-23T11:20:54.879Z,55.92
2023-03-23T11:23:24.087Z,55.31
2023-03-23T11:25:59.873Z,55.49
2023-03-23T11:28:34.021Z,55.89
2023-03-23T11:31:03.132Z,57.24
2023-03-23T11:33:32.543Z,57.39
2023-03-23T11:35:59.391Z,58.27
2023-03-23T11:38:29.273Z,60.03
2023-03-23T11:40:56.004Z,60.96
2023-03-23T11:43:25.714Z,62.31
2023-03-23T11:46:16.713Z,61.67
2023-03-23T11:49:02.255Z,61.24
2023-03-23T11:51:39.558Z,59.20
2023-03-23T11:54:14.602Z,58.36
2023-03-23T11:56:44.244Z,58.03
2023-03-23T11:59:30.603Z,56.82
2023-03-23T12:02:23.150Z,55.89
2023-03-23T12:05:29.406Z,54.90
2023-03-23T12:08:27.608Z,55.17
2023-03-23T12:10:58.008Z,55.02
2023-03-23T12:14:02.833Z,54.82
2023-03-23T12:16:40.631Z,54.99
2023-03-23T12:19:20.207Z,54.88
2023-03-23T12:22:25.613Z,54.84
2023-03-23T12:25:23.458Z,55.52
2023-03-23T12:28:02.734Z,55.85
2023-03-23T12:30:34.722Z,56.35
2023-03-23T12:33:35.293Z,57.59
2023-03-23T12:36:19.881Z,58.56
2023-03-23T12:39:08.463Z,59.40
2023-03-23T12:41:41.434Z,60.08
2023-03-23T12:44:14.515Z,60.21
2023-03-23T12:47:08.504Z,58.30
2023-03-23T12:49:44.390Z,58.04
2023-03-23T12:52:42.574Z,56.87
2023-03-23T12:55:43.136Z,57.18
2023-03-23T12:58:15.353Z,57.11
2023-03-23T13:01:02.348Z,57.97
2023-03-23T13:03:46.634Z,57.29
2023-03-23T13:06:21.426Z,57.90
2023-03-23T13:09:11.409Z,58.53
2023-03-23T13:11:42.149Z,58.14
2023-03-23T13:14:41.631Z,58.23
2023-03-23T13:17:29.729Z,57.49
2023-03-23T13:20:32.968Z,57.22
2023-03-23T13:23:12.747Z,56.75
2023-03-23T13:25:47.146Z,56.30
2023-03-23T13:28:23.680Z,55.91
2023-03-23T13:31:13.087Z,56.35
2023-03-23T13:33:40.161Z,54.78
2023-03-23T13:36:16.788Z,54.94
2023-03-23T13:38:50.667Z,55.51
2023-03-23T13:41:19.460Z,55.08
2023-03-23T13:43:46.175Z,55.87
2023-03-23T13:46:25.936Z,56.48
2023-03-23T13:49:05.394Z,57.24
2023-03-23T13:51:53.909Z,57.13
2023-03-23T13:54:21.177Z,55.83
2023-03-23T13:57:02.916Z,56.39
2023-03-23T13:59:48.046Z,55.76
2023-03-23T14:02:45.567Z,57.43
2023-03-23T14:05:19.255Z,56.89
2023-03-23T14:08:11.758Z,57.48
2023-03-23T14:10:50.795Z,57.50
2023-03-23T14:13:22.714Z,58.81
2023-03-23T14:16:01.557Z,58.77
2023-03-23T14:18:37.204Z,58.82
2023-03-23T14:21:05.068Z,59.26
2023-03-23T14:23:38.531Z,59.55
2023-03-23T14:26:17.563Z,59.65
2023-03-23T14:28:46.784Z,58.14
2023-03-23T14:31:27.457Z,58.67
2023-03-23T14:33:55.864Z,57.28
2023-03-23T14:36:28.922Z,57.69
2023-03-23T14:39:20.867Z,57.95
2023-03-23T14:41:47.699Z,56.88
2023-03-23T14:44:24.452Z,57.65
2023-03-23T14:46:51.224Z,57.25
2023-03-23T14:49:21.595Z,59.04
2023-03-23T14:51:50.828Z,58.17
2023-03-23T14:54:29.003Z,56.64
2023-03-23T14:56:57.154Z,58.66
2023-03-23T14:59:23.888Z,57.30
2023-03-23T15:01:51.981Z,56.46
2023-03-23T15:04:24.501Z,56.08
2023-03-23T15:06:57.865Z,53.36
2023-03-23T15:09:25.273Z,52.23
2023-03-23T15:11:58.584Z,51.01
2023-03-23T15:14:32.344Z,50.04
2023-03-23T15:17:00.715Z,50.49
2023-03-23T15:19:32.848Z,50.18
2023-03-23T15:22:08.638Z,50.55
2023-03-23T15:24:38.927Z,50.49
2023-03-23T15:27:12.294Z,49.90
2023-03-23T15:29:54.024Z,50.41
2023-03-23T15:32:26.366Z,49.43
2023-03-23T15:34:54.360Z,49.62
2023-03-23T15:37:28.776Z,49.96
2023-03-23T15:39:56.624Z,49.26
2023-03-23T15:42:31.812Z,49.82
2023-03-23T15:45:03.888Z,49.45
2023-03-23T15:47:39.917Z,48.27
2023-03-23T15:50:17.194Z,49.27
2023-03-23T15:52:44.226Z,48.28
2023-03-23T15:55:26.165Z,48.00
2023-03-23T15:57:54.849Z,47.73
2023-03-23T16:00:23.506Z,47.59
2023-03-23T16:02:54.960Z,47.78
2023-03-23T16:05:21.875Z,47.80
2023-03-23T16:07:48.608Z,48.39
2023-03-23T16:10:18.176Z,47.92
2023-03-23T16:12:46.067Z,48.73
2023-03-23T16:15:14.184Z,48.21
2023-03-23T16:17:41.237Z,48.32
2023-03-23T16:20:16.421Z,49.51
2023-03-23T16:22:43.201Z,48.54
2023-03-23T16:25:10.137Z,49.84
2023-03-23T16:27:36.874Z,49.32
2023-03-23T16:30:12.036Z,49.20
2023-03-23T16:35:04.487Z,49.37
2023-03-23T16:37:33.520Z,48.58
2023-03-23T16:40:01.236Z,49.70
2023-03-23T16:42:28.046Z,50.58
2023-03-23T16:44:55.054Z,50.88
2023-03-23T16:47:25.729Z,51.91
2023-03-23T16:49:54.103Z,53.05
2023-03-23T16:52:21.230Z,53.23
2023-03-23T16:54:48.040Z,52.80
2023-03-23T16:57:15.670Z,52.08
2023-03-23T16:59:42.724Z,51.96
2023-03-23T17:02:11.465Z,51.00
2023-03-23T17:04:43.711Z,50.46
2023-03-23T17:07:10.885Z,50.78
2023-03-23T17:09:37.664Z,50.75
2023-03-23T17:12:04.819Z,51.43
2023-03-23T17:14:31.822Z,50.92
2023-03-23T17:16:58.926Z,51.04
2023-03-23T17:19:26.228Z,51.85
2023-03-23T17:21:53.172Z,52.27
2023-03-23T17:24:20.094Z,52.25
2023-03-23T17:26:46.835Z,52.25
2023-03-23T17:29:13.572Z,52.50
2023-03-23T17:31:41.834Z,52.55
2023-03-23T17:34:08.584Z,52.27
2023-03-23T17:36:35.768Z,51.98
2023-03-23T17:39:02.733Z,51.54
2023-03-23T17:41:29.565Z,51.53
2023-03-23T17:43:56.277Z,53.27
2023-03-23T17:46:23.052Z,52.82
2023-03-23T17:48:49.837Z,53.20
2023-03-23T17:51:16.865Z,53.40
2023-03-23T17:53:43.651Z,53.61
2023-03-23T17:56:10.502Z,53.60
2023-03-23T17:58:37.325Z,53.38
2023-03-23T18:01:04.712Z,53.13
2023-03-23T18:03:31.960Z,52.14
2023-03-23T18:06:05.199Z,52.80
2023-03-23T18:08:32.868Z,52.90
2023-03-23T18:10:59.609Z,53.10
2023-03-23T18:13:27.747Z,53.95
2023-03-23T18:15:56.091Z,53.86
2023-03-23T18:18:23.503Z,54.80
2023-03-23T18:20:57.842Z,54.82
2023-03-23T18:23:24.538Z,54.47
2023-03-23T18:25:53.806Z,54.62
2023-03-23T18:28:22.000Z,55.20
2023-03-23T18:30:49.624Z,55.23
2023-03-23T18:33:18.999Z,54.82
2023-03-23T18:35:46.676Z,55.10
2023-03-23T18:38:14.292Z,54.30
2023-03-23T18:40:45.666Z,54.82
2023-03-23T18:43:13.282Z,54.21
2023-03-23T18:45:40.163Z,54.54
2023-03-23T18:48:07.740Z,54.06
2023-03-23T18:50:34.626Z,53.52
2023-03-23T18:53:01.415Z,53.42
2023-03-23T18:55:28.259Z,53.73
2023-03-23T18:57:55.106Z,53.94
2023-03-23T19:00:21.978Z,53.61
2023-03-23T19:02:52.024Z,54.15
2023-03-23T19:05:19.682Z,54.57
2023-03-23T19:07:46.536Z,54.61
2023-03-23T19:10:13.979Z,54.39
2023-03-23T19:12:40.691Z,55.05
2023-03-23T19:15:07.866Z,55.61
2023-03-23T19:17:36.439Z,55.19
2023-03-23T19:20:05.019Z,55.21
2023-03-23T19:22:33.021Z,55.37
2023-03-23T19:25:00.249Z,55.67
2023-03-23T19:27:26.970Z,55.61
2023-03-23T19:29:53.825Z,54.77
2023-03-23T19:32:21.074Z,55.19
2023-03-23T19:34:51.043Z,55.07
2023-03-23T19:37:18.097Z,55.19
2023-03-23T19:39:44.855Z,54.97
2023-03-23T19:42:11.923Z,54.30
2023-03-23T19:44:38.911Z,54.20
2023-03-23T19:47:05.879Z,54.25
2023-03-23T19:49:32.813Z,54.09
2023-03-23T19:52:09.061Z,53.76
2023-03-23T19:54:37.866Z,53.82
2023-03-23T19:57:05.576Z,54.05
2023-03-23T19:59:32.334Z,53.62
2023-03-23T20:01:59.074Z,53.44
2023-03-23T20:04:25.855Z,54.09
2023-03-23T20:06:52.954Z,54.30
2023-03-23T20:09:20.483Z,54.63
2023-03-23T20:11:47.287Z,54.64
2023-03-23T20:14:14.020Z,54.55
2023-03-23T20:16:40.967Z,55.26
2023-03-23T20:19:08.813Z,54.51
2023-03-23T20:21:35.604Z,55.10
2023-03-23T20:24:02.312Z,54.97
2023-03-23T20:26:32.423Z,55.33
2023-03-23T20:29:00.162Z,55.21
2023-03-23T20:31:30.829Z,55.31
2023-03-23T20:34:02.070Z,54.72
2023-03-23T20:36:36.252Z,55.11
2023-03-23T20:39:11.511Z,55.66
2023-03-23T20:41:39.070Z,55.62
2023-03-23T20:44:07.277Z,55.71
2023-03-23T20:46:34.361Z,55.68
2023-03-23T20:49:01.781Z,55.60
2023-03-23T20:51:28.526Z,55.55
2023-03-23T20:53:55.835Z,55.48
2023-03-23T20:56:22.642Z,55.66
2023-03-23T20:58:49.653Z,56.03
2023-03-23T21:01:16.443Z,55.71
2023-03-23T21:03:44.589Z,55.88
2023-03-23T21:06:12.140Z,56.42
2023-03-23T21:08:40.374Z,56.80
2023-03-23T21:11:09.869Z,57.76
2023-03-23T21:13:36.962Z,57.80
2023-03-23T21:16:05.278Z,57.73
2023-03-23T21:18:32.203Z,58.17
2023-03-23T21:21:00.549Z,58.68
2023-03-23T21:23:29.913Z,58.27
2023-03-23T21:26:06.330Z,58.79
2023-03-23T21:28:33.210Z,59.17
2023-03-23T21:31:02.353Z,59.34
2023-03-23T21:33:29.122Z,59.50
2023-03-23T21:35:56.642Z,60.23
2023-03-23T21:38:27.166Z,59.95
2023-03-23T21:40:55.239Z,60.06
2023-03-23T21:43:27.369Z,59.62
2023-03-23T21:45:56.639Z,59.70
2023-03-23T21:48:24.203Z,60.13
2023-03-23T21:50:50.933Z,60.08
2023-03-23T21:53:20.610Z,60.11
2023-03-23T21:55:51.887Z,60.11
2023-03-23T21:58:24.293Z,59.68
2023-03-23T22:00:54.244Z,59.95
2023-03-23T22:03:25.448Z,59.24
2023-03-23T22:05:56.977Z,59.25
2023-03-23T22:08:25.441Z,59.87
2023-03-23T22:11:00.813Z,59.24
2023-03-23T22:13:32.662Z,58.53
2023-03-23T22:16:01.328Z,58.51
2023-03-23T22:18:28.558Z,58.95
2023-03-23T22:20:55.438Z,58.83
2023-03-23T22:23:22.404Z,58.71
2023-03-23T22:25:49.101Z,58.11
2023-03-23T22:28:15.824Z,58.27
2023-03-23T22:30:42.534Z,58.37
2023-03-23T22:33:09.318Z,58.35
2023-03-23T22:35:36.364Z,58.67
2023-03-23T22:38:03.404Z,57.91
2023-03-23T22:40:32.921Z,59.12
2023-03-23T22:43:00.062Z,58.85
2023-03-23T22:45:28.047Z,59.50
2023-03-23T22:47:55.009Z,59.24
2023-03-23T22:50:24.304Z,58.32
2023-03-23T22:52:51.063Z,58.61
2023-03-23T22:55:18.020Z,58.36
2023-03-23T22:57:45.015Z,58.38
2023-03-23T23:00:15.143Z,59.62
2023-03-23T23:02:43.102Z,61.24
2023-03-23T23:05:10.836Z,61.71
2023-03-23T23:07:37.608Z,63.07
2023-03-23T23:10:05.497Z,63.20
2023-03-23T23:12:35.332Z,63.31
2023-03-23T23:15:07.268Z,64.49
2023-03-23T23:17:35.033Z,64.43
2023-03-23T23:20:05.801Z,63.80
2023-03-23T23:22:32.997Z,64.06
2023-03-23T23:25:00.909Z,63.57
2023-03-23T23:27:27.618Z,63.85
2023-03-23T23:29:54.382Z,64.77
2023-03-23T23:32:21.243Z,65.11
2023-03-23T23:34:48.675Z,65.19
2023-03-23T23:37:15.556Z,65.66
2023-03-23T23:39:42.643Z,65.38
2023-03-23T23:42:09.593Z,66.06
2023-03-23T23:44:36.368Z,65.94
2023-03-23T23:47:03.329Z,66.43
2023-03-23T23:49:30.155Z,67.14
2023-03-23T23:51:56.877Z,68.12
2023-03-23T23:54:30.259Z,69.17
2023-03-23T23:57:01.266Z,69.75
2023-03-23T23:59:29.217Z,69.02
